sensor_id;sensor_type;location;lat;lon;timestamp;P1;durP1;ratioP1;P2;durP2;ratioP2
1471;SDS011;963;42.644;23.336;2023-02-15T00:00:25;32.40;;;23.50;;
1471;SDS011;963;42.644;23.336;2023-02-15T00:02:51;32.60;;;21.77;;
1471;SDS011;963;42.644;23.336;2023-02-15T00:05:16;35.90;;;22.97;;
1471;SDS011;963;42.644;23.336;2023-02-15T00:07:42;32.07;;;22.87;;
1471;SDS011;963;42.644;23.336;2023-02-15T00:10:07;33.67;;;21.77;;
1471;SDS011;963;42.644;23.336;2023-02-15T00:12:33;34.27;;;22.30;;
1471;SDS011;963;42.644;23.336;2023-02-15T00:14:58;36.10;;;23.97;;
1471;SDS011;963;42.644;23.336;2023-02-15T00:17:26;36.50;;;22.17;;
1471;SDS011;963;42.644;23.336;2023-02-15T00:19:52;33.30;;;22.40;;
1471;SDS011;963;42.644;23.336;2023-02-15T00:22:18;30.83;;;20.80;;
1471;SDS011;963;42.644;23.336;2023-02-15T00:24:43;30.23;;;19.87;;
1471;SDS011;963;42.644;23.336;2023-02-15T00:27:09;35.87;;;23.07;;
1471;SDS011;963;42.644;23.336;2023-02-15T00:29:34;31.80;;;22.07;;
1471;SDS011;963;42.644;23.336;2023-02-15T00:31:59;38.07;;;21.90;;
1471;SDS011;963;42.644;23.336;2023-02-15T00:34:26;29.00;;;20.47;;
1471;SDS011;963;42.644;23.336;2023-02-15T00:36:52;32.13;;;20.93;;
1471;SDS011;963;42.644;23.336;2023-02-15T00:39:18;28.43;;;20.60;;
1471;SDS011;963;42.644;23.336;2023-02-15T00:41:44;32.90;;;21.20;;
1471;SDS011;963;42.644;23.336;2023-02-15T00:44:11;28.00;;;19.77;;
1471;SDS011;963;42.644;23.336;2023-02-15T00:46:36;32.30;;;21.40;;
1471;SDS011;963;42.644;23.336;2023-02-15T00:49:02;32.93;;;20.70;;
1471;SDS011;963;42.644;23.336;2023-02-15T00:51:29;31.70;;;20.30;;
1471;SDS011;963;42.644;23.336;2023-02-15T00:53:54;31.40;;;20.80;;
1471;SDS011;963;42.644;23.336;2023-02-15T00:56:20;29.43;;;19.70;;
1471;SDS011;963;42.644;23.336;2023-02-15T00:58:45;33.83;;;21.13;;
1471;SDS011;963;42.644;23.336;2023-02-15T01:01:12;30.63;;;20.57;;
1471;SDS011;963;42.644;23.336;2023-02-15T01:03:40;30.53;;;20.87;;
1471;SDS011;963;42.644;23.336;2023-02-15T01:06:09;33.43;;;21.13;;
1471;SDS011;963;42.644;23.336;2023-02-15T01:08:36;32.07;;;20.53;;
1471;SDS011;963;42.644;23.336;2023-02-15T01:11:09;32.97;;;21.53;;
1471;SDS011;963;42.644;23.336;2023-02-15T01:13:47;32.50;;;21.30;;
1471;SDS011;963;42.644;23.336;2023-02-15T01:16:14;31.80;;;21.17;;
1471;SDS011;963;42.644;23.336;2023-02-15T01:18:40;31.30;;;20.53;;
1471;SDS011;963;42.644;23.336;2023-02-15T01:21:19;30.30;;;20.53;;
1471;SDS011;963;42.644;23.336;2023-02-15T01:23:45;28.07;;;20.10;;
1471;SDS011;963;42.644;23.336;2023-02-15T01:26:11;32.43;;;20.60;;
1471;SDS011;963;42.644;23.336;2023-02-15T01:28:37;30.73;;;20.83;;
1471;SDS011;963;42.644;23.336;2023-02-15T01:31:09;29.80;;;19.30;;
1471;SDS011;963;42.644;23.336;2023-02-15T01:33:40;29.87;;;20.03;;
1471;SDS011;963;42.644;23.336;2023-02-15T01:36:05;30.47;;;21.03;;
1471;SDS011;963;42.644;23.336;2023-02-15T01:38:31;28.40;;;20.70;;
1471;SDS011;963;42.644;23.336;2023-02-15T01:40:56;33.70;;;20.63;;
1471;SDS011;963;42.644;23.336;2023-02-15T01:43:42;29.83;;;20.07;;
1471;SDS011;963;42.644;23.336;2023-02-15T01:46:12;29.53;;;19.93;;
1471;SDS011;963;42.644;23.336;2023-02-15T01:48:44;29.27;;;21.03;;
1471;SDS011;963;42.644;23.336;2023-02-15T01:51:17;30.00;;;20.60;;
1471;SDS011;963;42.644;23.336;2023-02-15T01:53:58;29.60;;;19.20;;
1471;SDS011;963;42.644;23.336;2023-02-15T01:56:29;28.77;;;20.03;;
1471;SDS011;963;42.644;23.336;2023-02-15T01:58:58;30.63;;;19.83;;
1471;SDS011;963;42.644;23.336;2023-02-15T02:01:28;28.63;;;20.07;;
1471;SDS011;963;42.644;23.336;2023-02-15T02:06:38;31.10;;;21.53;;
1471;SDS011;963;42.644;23.336;2023-02-15T02:09:04;28.70;;;19.00;;
1471;SDS011;963;42.644;23.336;2023-02-15T02:11:30;27.60;;;19.43;;
1471;SDS011;963;42.644;23.336;2023-02-15T02:13:56;30.43;;;20.47;;
1471;SDS011;963;42.644;23.336;2023-02-15T02:16:25;29.70;;;20.07;;
1471;SDS011;963;42.644;23.336;2023-02-15T02:21:25;30.40;;;20.37;;
1471;SDS011;963;42.644;23.336;2023-02-15T02:35:08;26.47;;;17.80;;
1471;SDS011;963;42.644;23.336;2023-02-15T02:37:51;28.70;;;19.47;;
1471;SDS011;963;42.644;23.336;2023-02-15T02:40:39;28.57;;;19.77;;
1471;SDS011;963;42.644;23.336;2023-02-15T02:46:26;28.23;;;18.47;;
1471;SDS011;963;42.644;23.336;2023-02-15T02:48:56;28.07;;;18.27;;
1471;SDS011;963;42.644;23.336;2023-02-15T02:51:22;28.43;;;19.23;;
1471;SDS011;963;42.644;23.336;2023-02-15T02:53:53;28.53;;;18.07;;
1471;SDS011;963;42.644;23.336;2023-02-15T02:56:55;24.83;;;17.30;;
1471;SDS011;963;42.644;23.336;2023-02-15T02:59:24;27.00;;;18.60;;
1471;SDS011;963;42.644;23.336;2023-02-15T03:02:00;33.73;;;20.13;;
1471;SDS011;963;42.644;23.336;2023-02-15T03:04:37;27.93;;;18.83;;
1471;SDS011;963;42.644;23.336;2023-02-15T03:07:11;26.87;;;17.53;;
1471;SDS011;963;42.644;23.336;2023-02-15T03:09:43;28.90;;;17.97;;
1471;SDS011;963;42.644;23.336;2023-02-15T03:12:13;32.00;;;20.17;;
1471;SDS011;963;42.644;23.336;2023-02-15T03:14:43;24.23;;;17.27;;
1471;SDS011;963;42.644;23.336;2023-02-15T03:17:12;28.60;;;18.90;;
1471;SDS011;963;42.644;23.336;2023-02-15T03:19:39;26.17;;;17.67;;
1471;SDS011;963;42.644;23.336;2023-02-15T03:22:10;25.17;;;18.60;;
1471;SDS011;963;42.644;23.336;2023-02-15T03:24:44;22.87;;;17.27;;
1471;SDS011;963;42.644;23.336;2023-02-15T03:27:33;28.30;;;18.30;;
1471;SDS011;963;42.644;23.336;2023-02-15T03:30:10;26.23;;;18.33;;
1471;SDS011;963;42.644;23.336;2023-02-15T03:32:38;28.87;;;19.20;;
1471;SDS011;963;42.644;23.336;2023-02-15T03:35:05;29.33;;;19.20;;
1471;SDS011;963;42.644;23.336;2023-02-15T03:40:11;26.23;;;18.20;;
1471;SDS011;963;42.644;23.336;2023-02-15T03:45:45;27.40;;;18.63;;
1471;SDS011;963;42.644;23.336;2023-02-15T03:48:31;24.70;;;17.10;;
1471;SDS011;963;42.644;23.336;2023-02-15T03:51:02;23.97;;;17.13;;
1471;SDS011;963;42.644;23.336;2023-02-15T03:53:52;25.00;;;17.33;;
1471;SDS011;963;42.644;23.336;2023-02-15T03:56:19;26.10;;;17.00;;
1471;SDS011;963;42.644;23.336;2023-02-15T03:58:44;24.23;;;16.90;;
1471;SDS011;963;42.644;23.336;2023-02-15T04:01:36;27.37;;;18.80;;
1471;SDS011;963;42.644;23.336;2023-02-15T04:07:03;22.27;;;16.50;;
1471;SDS011;963;42.644;23.336;2023-02-15T04:09:31;28.20;;;17.90;;
1471;SDS011;963;42.644;23.336;2023-02-15T04:12:15;25.63;;;16.87;;
1471;SDS011;963;42.644;23.336;2023-02-15T04:14:40;25.97;;;17.33;;
1471;SDS011;963;42.644;23.336;2023-02-15T04:17:25;26.20;;;18.00;;
1471;SDS011;963;42.644;23.336;2023-02-15T04:19:50;24.37;;;17.00;;
1471;SDS011;963;42.644;23.336;2023-02-15T04:22:34;28.00;;;17.97;;
1471;SDS011;963;42.644;23.336;2023-02-15T04:25:18;23.13;;;16.07;;
1471;SDS011;963;42.644;23.336;2023-02-15T04:27:49;23.27;;;17.33;;
1471;SDS011;963;42.644;23.336;2023-02-15T04:30:16;27.60;;;18.70;;
1471;SDS011;963;42.644;23.336;2023-02-15T04:32:43;27.53;;;18.00;;
1471;SDS011;963;42.644;23.336;2023-02-15T04:35:09;27.33;;;18.77;;
1471;SDS011;963;42.644;23.336;2023-02-15T04:37:36;25.13;;;16.70;;
1471;SDS011;963;42.644;23.336;2023-02-15T04:40:03;27.03;;;18.90;;
1471;SDS011;963;42.644;23.336;2023-02-15T04:42:29;28.80;;;18.30;;
1471;SDS011;963;42.644;23.336;2023-02-15T04:44:54;25.83;;;18.97;;
1471;SDS011;963;42.644;23.336;2023-02-15T04:47:20;24.27;;;16.50;;
1471;SDS011;963;42.644;23.336;2023-02-15T04:49:47;24.37;;;16.77;;
1471;SDS011;963;42.644;23.336;2023-02-15T04:52:12;27.87;;;19.20;;
1471;SDS011;963;42.644;23.336;2023-02-15T04:54:38;26.53;;;17.97;;
1471;SDS011;963;42.644;23.336;2023-02-15T04:57:04;24.43;;;16.37;;
1471;SDS011;963;42.644;23.336;2023-02-15T04:59:29;27.70;;;18.80;;
1471;SDS011;963;42.644;23.336;2023-02-15T05:01:55;28.77;;;18.87;;
1471;SDS011;963;42.644;23.336;2023-02-15T05:04:20;23.30;;;16.17;;
1471;SDS011;963;42.644;23.336;2023-02-15T05:06:45;25.23;;;17.57;;
1471;SDS011;963;42.644;23.336;2023-02-15T05:09:11;26.13;;;17.87;;
1471;SDS011;963;42.644;23.336;2023-02-15T05:11:37;29.73;;;18.60;;
1471;SDS011;963;42.644;23.336;2023-02-15T05:14:02;25.20;;;18.10;;
1471;SDS011;963;42.644;23.336;2023-02-15T05:16:28;26.23;;;18.73;;
1471;SDS011;963;42.644;23.336;2023-02-15T05:18:54;27.67;;;18.10;;
1471;SDS011;963;42.644;23.336;2023-02-15T05:21:19;27.53;;;19.10;;
1471;SDS011;963;42.644;23.336;2023-02-15T05:23:44;27.43;;;17.73;;
1471;SDS011;963;42.644;23.336;2023-02-15T05:26:15;27.67;;;17.90;;
1471;SDS011;963;42.644;23.336;2023-02-15T05:29:02;26.03;;;19.00;;
1471;SDS011;963;42.644;23.336;2023-02-15T05:31:28;28.63;;;19.23;;
1471;SDS011;963;42.644;23.336;2023-02-15T05:33:53;26.90;;;17.33;;
1471;SDS011;963;42.644;23.336;2023-02-15T05:36:19;25.60;;;18.87;;
1471;SDS011;963;42.644;23.336;2023-02-15T05:38:44;28.57;;;19.30;;
1471;SDS011;963;42.644;23.336;2023-02-15T05:41:10;25.60;;;18.20;;
1471;SDS011;963;42.644;23.336;2023-02-15T05:43:36;26.87;;;18.10;;
1471;SDS011;963;42.644;23.336;2023-02-15T05:46:02;26.87;;;17.53;;
1471;SDS011;963;42.644;23.336;2023-02-15T05:48:29;29.23;;;18.53;;
1471;SDS011;963;42.644;23.336;2023-02-15T05:50:58;24.03;;;16.00;;
1471;SDS011;963;42.644;23.336;2023-02-15T05:53:30;25.70;;;17.53;;
1471;SDS011;963;42.644;23.336;2023-02-15T05:55:57;27.37;;;17.07;;
1471;SDS011;963;42.644;23.336;2023-02-15T05:58:26;24.33;;;16.57;;
1471;SDS011;963;42.644;23.336;2023-02-15T06:00:52;26.83;;;18.17;;
1471;SDS011;963;42.644;23.336;2023-02-15T06:03:17;24.60;;;16.90;;
1471;SDS011;963;42.644;23.336;2023-02-15T06:05:43;24.50;;;16.37;;
1471;SDS011;963;42.644;23.336;2023-02-15T06:08:08;24.57;;;17.00;;
1471;SDS011;963;42.644;23.336;2023-02-15T06:10:34;29.77;;;18.60;;
1471;SDS011;963;42.644;23.336;2023-02-15T06:12:59;24.17;;;16.83;;
1471;SDS011;963;42.644;23.336;2023-02-15T06:15:24;26.90;;;17.93;;
1471;SDS011;963;42.644;23.336;2023-02-15T06:17:50;24.13;;;17.30;;
1471;SDS011;963;42.644;23.336;2023-02-15T06:20:15;24.27;;;17.10;;
1471;SDS011;963;42.644;23.336;2023-02-15T06:22:41;23.20;;;16.47;;
1471;SDS011;963;42.644;23.336;2023-02-15T06:25:06;23.40;;;16.77;;
1471;SDS011;963;42.644;23.336;2023-02-15T06:27:34;24.00;;;16.23;;
1471;SDS011;963;42.644;23.336;2023-02-15T06:30:00;24.50;;;16.73;;
1471;SDS011;963;42.644;23.336;2023-02-15T06:32:26;21.97;;;16.53;;
1471;SDS011;963;42.644;23.336;2023-02-15T06:34:51;27.67;;;18.97;;
1471;SDS011;963;42.644;23.336;2023-02-15T06:37:16;26.97;;;17.33;;
1471;SDS011;963;42.644;23.336;2023-02-15T06:39:42;23.40;;;16.73;;
1471;SDS011;963;42.644;23.336;2023-02-15T06:42:07;25.40;;;16.00;;
1471;SDS011;963;42.644;23.336;2023-02-15T06:44:33;26.27;;;18.27;;
1471;SDS011;963;42.644;23.336;2023-02-15T06:46:58;23.20;;;17.33;;
1471;SDS011;963;42.644;23.336;2023-02-15T06:49:24;22.90;;;15.80;;
1471;SDS011;963;42.644;23.336;2023-02-15T06:51:49;23.10;;;16.47;;
1471;SDS011;963;42.644;23.336;2023-02-15T06:54:14;24.87;;;17.87;;
1471;SDS011;963;42.644;23.336;2023-02-15T06:56:40;22.50;;;16.07;;
1471;SDS011;963;42.644;23.336;2023-02-15T06:59:05;25.67;;;17.80;;
1471;SDS011;963;42.644;23.336;2023-02-15T07:01:31;22.93;;;16.03;;
1471;SDS011;963;42.644;23.336;2023-02-15T07:03:56;22.00;;;15.13;;
1471;SDS011;963;42.644;23.336;2023-02-15T07:06:21;24.03;;;16.20;;
1471;SDS011;963;42.644;23.336;2023-02-15T07:08:47;21.50;;;15.10;;
1471;SDS011;963;42.644;23.336;2023-02-15T07:11:12;21.47;;;15.27;;
1471;SDS011;963;42.644;23.336;2023-02-15T07:13:56;21.83;;;13.70;;
1471;SDS011;963;42.644;23.336;2023-02-15T07:16:22;24.33;;;15.87;;
1471;SDS011;963;42.644;23.336;2023-02-15T07:18:47;21.80;;;15.47;;
1471;SDS011;963;42.644;23.336;2023-02-15T07:21:13;19.40;;;14.30;;
1471;SDS011;963;42.644;23.336;2023-02-15T07:23:38;22.27;;;14.90;;
1471;SDS011;963;42.644;23.336;2023-02-15T07:26:05;21.40;;;14.27;;
1471;SDS011;963;42.644;23.336;2023-02-15T07:28:32;21.07;;;14.13;;
1471;SDS011;963;42.644;23.336;2023-02-15T07:31:00;21.97;;;13.77;;
1471;SDS011;963;42.644;23.336;2023-02-15T07:33:30;23.53;;;14.30;;
1471;SDS011;963;42.644;23.336;2023-02-15T07:35:57;20.63;;;13.70;;
1471;SDS011;963;42.644;23.336;2023-02-15T07:38:24;19.60;;;13.90;;
1471;SDS011;963;42.644;23.336;2023-02-15T07:40:51;21.93;;;13.87;;
1471;SDS011;963;42.644;23.336;2023-02-15T07:43:16;20.30;;;14.20;;
1471;SDS011;963;42.644;23.336;2023-02-15T07:45:42;21.07;;;13.63;;
1471;SDS011;963;42.644;23.336;2023-02-15T07:48:08;21.27;;;14.27;;
1471;SDS011;963;42.644;23.336;2023-02-15T07:50:33;24.53;;;14.40;;
1471;SDS011;963;42.644;23.336;2023-02-15T07:53:01;18.67;;;13.17;;
1471;SDS011;963;42.644;23.336;2023-02-15T07:55:27;20.50;;;14.47;;
1471;SDS011;963;42.644;23.336;2023-02-15T07:57:52;23.03;;;13.47;;
1471;SDS011;963;42.644;23.336;2023-02-15T08:00:19;20.17;;;13.30;;
1471;SDS011;963;42.644;23.336;2023-02-15T08:02:53;19.30;;;13.90;;
1471;SDS011;963;42.644;23.336;2023-02-15T08:05:41;21.50;;;14.30;;
1471;SDS011;963;42.644;23.336;2023-02-15T08:08:09;21.87;;;12.80;;
1471;SDS011;963;42.644;23.336;2023-02-15T08:10:58;17.27;;;12.70;;
1471;SDS011;963;42.644;23.336;2023-02-15T08:13:45;21.90;;;13.50;;
1471;SDS011;963;42.644;23.336;2023-02-15T08:18:47;18.77;;;13.43;;
1471;SDS011;963;42.644;23.336;2023-02-15T08:21:13;19.57;;;13.50;;
1471;SDS011;963;42.644;23.336;2023-02-15T08:23:38;19.40;;;13.50;;
1471;SDS011;963;42.644;23.336;2023-02-15T08:26:04;19.63;;;13.73;;
1471;SDS011;963;42.644;23.336;2023-02-15T08:28:29;19.17;;;13.43;;
1471;SDS011;963;42.644;23.336;2023-02-15T08:31:03;19.63;;;14.10;;
1471;SDS011;963;42.644;23.336;2023-02-15T08:33:39;18.77;;;13.17;;
1471;SDS011;963;42.644;23.336;2023-02-15T08:36:10;18.90;;;12.40;;
1471;SDS011;963;42.644;23.336;2023-02-15T08:38:40;19.57;;;13.10;;
1471;SDS011;963;42.644;23.336;2023-02-15T16:52:42;34.70;;;23.37;;
1471;SDS011;963;42.644;23.336;2023-02-15T16:55:18;31.83;;;20.97;;
1471;SDS011;963;42.644;23.336;2023-02-15T16:57:49;28.53;;;20.60;;
1471;SDS011;963;42.644;23.336;2023-02-15T17:00:19;29.23;;;21.47;;
1471;SDS011;963;42.644;23.336;2023-02-15T17:02:55;26.10;;;20.30;;
1471;SDS011;963;42.644;23.336;2023-02-15T17:05:25;33.27;;;22.07;;
1471;SDS011;963;42.644;23.336;2023-02-15T17:10:37;34.87;;;21.40;;
1471;SDS011;963;42.644;23.336;2023-02-15T17:15:40;29.47;;;21.33;;
1471;SDS011;963;42.644;23.336;2023-02-15T17:18:29;29.50;;;20.57;;
1471;SDS011;963;42.644;23.336;2023-02-15T17:20:59;33.00;;;21.70;;
1471;SDS011;963;42.644;23.336;2023-02-15T17:23:34;29.83;;;21.93;;
1471;SDS011;963;42.644;23.336;2023-02-15T17:28:50;36.37;;;22.97;;
1471;SDS011;963;42.644;23.336;2023-02-15T17:31:18;33.63;;;22.37;;
1471;SDS011;963;42.644;23.336;2023-02-15T17:33:45;37.13;;;24.50;;
1471;SDS011;963;42.644;23.336;2023-02-15T17:36:12;36.43;;;23.27;;
1471;SDS011;963;42.644;23.336;2023-02-15T17:41:21;28.40;;;19.00;;
1471;SDS011;963;42.644;23.336;2023-02-15T17:43:50;31.27;;;21.17;;
1471;SDS011;963;42.644;23.336;2023-02-15T17:46:16;29.40;;;22.10;;
1471;SDS011;963;42.644;23.336;2023-02-15T17:48:45;30.00;;;21.40;;
1471;SDS011;963;42.644;23.336;2023-02-15T17:51:12;31.37;;;20.37;;
1471;SDS011;963;42.644;23.336;2023-02-15T17:53:40;54.60;;;35.60;;
1471;SDS011;963;42.644;23.336;2023-02-15T17:56:26;40.03;;;27.90;;
1471;SDS011;963;42.644;23.336;2023-02-15T17:58:51;33.13;;;22.77;;
1471;SDS011;963;42.644;23.336;2023-02-15T18:01:17;35.17;;;24.83;;
1471;SDS011;963;42.644;23.336;2023-02-15T18:04:03;35.80;;;22.73;;
1471;SDS011;963;42.644;23.336;2023-02-15T18:06:47;35.20;;;22.80;;
1471;SDS011;963;42.644;23.336;2023-02-15T18:09:31;31.53;;;22.17;;
1471;SDS011;963;42.644;23.336;2023-02-15T18:12:22;33.83;;;21.90;;
1471;SDS011;963;42.644;23.336;2023-02-15T18:15:14;35.27;;;24.87;;
1471;SDS011;963;42.644;23.336;2023-02-15T18:17:43;38.57;;;25.40;;
1471;SDS011;963;42.644;23.336;2023-02-15T18:22:42;36.10;;;23.90;;
1471;SDS011;963;42.644;23.336;2023-02-15T18:25:11;35.27;;;23.10;;
1471;SDS011;963;42.644;23.336;2023-02-15T18:27:38;33.60;;;22.50;;
1471;SDS011;963;42.644;23.336;2023-02-15T18:30:04;36.93;;;23.07;;
1471;SDS011;963;42.644;23.336;2023-02-15T18:32:31;32.03;;;22.93;;
1471;SDS011;963;42.644;23.336;2023-02-15T18:35:00;34.97;;;23.07;;
1471;SDS011;963;42.644;23.336;2023-02-15T18:37:31;41.17;;;24.20;;
1471;SDS011;963;42.644;23.336;2023-02-15T18:39:57;42.97;;;25.43;;
1471;SDS011;963;42.644;23.336;2023-02-15T18:42:25;36.87;;;24.87;;
1471;SDS011;963;42.644;23.336;2023-02-15T18:44:56;41.70;;;26.90;;
1471;SDS011;963;42.644;23.336;2023-02-15T18:47:24;38.73;;;23.20;;
1471;SDS011;963;42.644;23.336;2023-02-15T18:49:49;44.50;;;27.17;;
1471;SDS011;963;42.644;23.336;2023-02-15T18:52:19;41.80;;;24.10;;
1471;SDS011;963;42.644;23.336;2023-02-15T18:54:46;38.77;;;25.87;;
1471;SDS011;963;42.644;23.336;2023-02-15T18:57:17;39.10;;;24.70;;
1471;SDS011;963;42.644;23.336;2023-02-15T18:59:42;52.77;;;26.37;;
1471;SDS011;963;42.644;23.336;2023-02-15T19:02:15;49.83;;;26.20;;
1471;SDS011;963;42.644;23.336;2023-02-15T19:04:42;55.33;;;34.13;;
1471;SDS011;963;42.644;23.336;2023-02-15T19:09:41;59.23;;;35.20;;
1471;SDS011;963;42.644;23.336;2023-02-15T19:12:10;38.03;;;24.57;;
1471;SDS011;963;42.644;23.336;2023-02-15T19:14:37;34.87;;;22.20;;
1471;SDS011;963;42.644;23.336;2023-02-15T19:17:03;41.63;;;26.60;;
1471;SDS011;963;42.644;23.336;2023-02-15T19:19:28;43.83;;;24.63;;
1471;SDS011;963;42.644;23.336;2023-02-15T19:21:54;34.60;;;22.70;;
1471;SDS011;963;42.644;23.336;2023-02-15T19:24:38;40.00;;;24.40;;
1471;SDS011;963;42.644;23.336;2023-02-15T19:27:06;42.23;;;24.83;;
1471;SDS011;963;42.644;23.336;2023-02-15T19:29:36;43.37;;;27.23;;
1471;SDS011;963;42.644;23.336;2023-02-15T19:32:01;78.27;;;46.80;;
1471;SDS011;963;42.644;23.336;2023-02-15T19:34:26;46.20;;;30.60;;
1471;SDS011;963;42.644;23.336;2023-02-15T19:36:52;43.90;;;27.73;;
1471;SDS011;963;42.644;23.336;2023-02-15T19:39:24;38.27;;;24.57;;
1471;SDS011;963;42.644;23.336;2023-02-15T19:42:01;32.10;;;23.10;;
1471;SDS011;963;42.644;23.336;2023-02-15T19:44:27;36.20;;;24.00;;
1471;SDS011;963;42.644;23.336;2023-02-15T19:46:52;35.60;;;24.30;;
1471;SDS011;963;42.644;23.336;2023-02-15T19:49:20;37.93;;;22.90;;
1471;SDS011;963;42.644;23.336;2023-02-15T19:51:45;39.33;;;24.13;;
1471;SDS011;963;42.644;23.336;2023-02-15T19:54:19;39.80;;;27.77;;
1471;SDS011;963;42.644;23.336;2023-02-15T19:56:51;46.23;;;24.50;;
1471;SDS011;963;42.644;23.336;2023-02-15T19:59:20;53.23;;;26.47;;
1471;SDS011;963;42.644;23.336;2023-02-15T20:01:57;49.83;;;24.50;;
1471;SDS011;963;42.644;23.336;2023-02-15T20:04:23;46.43;;;24.43;;
1471;SDS011;963;42.644;23.336;2023-02-15T20:06:49;43.70;;;23.80;;
1471;SDS011;963;42.644;23.336;2023-02-15T20:09:20;38.67;;;22.83;;
1471;SDS011;963;42.644;23.336;2023-02-15T20:11:49;33.73;;;23.67;;
1471;SDS011;963;42.644;23.336;2023-02-15T20:14:16;47.80;;;28.30;;
1471;SDS011;963;42.644;23.336;2023-02-15T20:16:41;48.57;;;27.07;;
1471;SDS011;963;42.644;23.336;2023-02-15T20:19:07;47.27;;;27.60;;
1471;SDS011;963;42.644;23.336;2023-02-15T20:21:33;36.43;;;24.10;;
1471;SDS011;963;42.644;23.336;2023-02-15T20:23:59;35.50;;;22.57;;
1471;SDS011;963;42.644;23.336;2023-02-15T20:26:25;36.33;;;21.60;;
1471;SDS011;963;42.644;23.336;2023-02-15T20:28:54;34.90;;;22.97;;
1471;SDS011;963;42.644;23.336;2023-02-15T20:31:19;38.40;;;21.93;;
1471;SDS011;963;42.644;23.336;2023-02-15T20:33:46;39.27;;;21.27;;
1471;SDS011;963;42.644;23.336;2023-02-15T20:36:15;36.50;;;21.63;;
1471;SDS011;963;42.644;23.336;2023-02-15T20:38:42;37.43;;;20.17;;
1471;SDS011;963;42.644;23.336;2023-02-15T20:41:11;28.27;;;19.00;;
1471;SDS011;963;42.644;23.336;2023-02-15T20:43:57;32.93;;;19.43;;
1471;SDS011;963;42.644;23.336;2023-02-15T20:46:23;37.03;;;20.33;;
1471;SDS011;963;42.644;23.336;2023-02-15T20:48:48;39.30;;;21.23;;
1471;SDS011;963;42.644;23.336;2023-02-15T20:51:17;30.50;;;20.10;;
1471;SDS011;963;42.644;23.336;2023-02-15T20:53:45;35.87;;;20.00;;
1471;SDS011;963;42.644;23.336;2023-02-15T20:56:28;35.20;;;22.20;;
1471;SDS011;963;42.644;23.336;2023-02-15T20:58:54;61.03;;;35.33;;
1471;SDS011;963;42.644;23.336;2023-02-15T21:01:19;54.73;;;29.30;;
1471;SDS011;963;42.644;23.336;2023-02-15T21:03:45;62.87;;;36.80;;
1471;SDS011;963;42.644;23.336;2023-02-15T21:06:11;35.13;;;23.03;;
1471;SDS011;963;42.644;23.336;2023-02-15T21:08:39;35.00;;;22.40;;
1471;SDS011;963;42.644;23.336;2023-02-15T21:11:10;36.97;;;23.77;;
1471;SDS011;963;42.644;23.336;2023-02-15T21:13:46;42.83;;;25.47;;
1471;SDS011;963;42.644;23.336;2023-02-15T21:16:13;45.47;;;25.10;;
1471;SDS011;963;42.644;23.336;2023-02-15T21:18:39;40.40;;;25.70;;
1471;SDS011;963;42.644;23.336;2023-02-15T21:21:09;37.03;;;24.73;;
1471;SDS011;963;42.644;23.336;2023-02-15T21:23:40;40.60;;;24.73;;
1471;SDS011;963;42.644;23.336;2023-02-15T21:26:16;39.77;;;24.90;;
1471;SDS011;963;42.644;23.336;2023-02-15T21:28:43;39.47;;;24.80;;
1471;SDS011;963;42.644;23.336;2023-02-15T21:31:16;37.07;;;24.10;;
1471;SDS011;963;42.644;23.336;2023-02-15T21:33:43;40.60;;;26.70;;
1471;SDS011;963;42.644;23.336;2023-02-15T21:36:13;39.73;;;26.30;;
1471;SDS011;963;42.644;23.336;2023-02-15T21:38:40;47.50;;;27.10;;
1471;SDS011;963;42.644;23.336;2023-02-15T21:41:10;46.40;;;28.73;;
1471;SDS011;963;42.644;23.336;2023-02-15T21:43:58;45.90;;;27.40;;
1471;SDS011;963;42.644;23.336;2023-02-15T21:46:42;52.43;;;29.60;;
1471;SDS011;963;42.644;23.336;2023-02-15T21:49:26;46.30;;;27.30;;
1471;SDS011;963;42.644;23.336;2023-02-15T21:51:52;71.43;;;41.07;;
1471;SDS011;963;42.644;23.336;2023-02-15T21:54:35;54.63;;;31.00;;
1471;SDS011;963;42.644;23.336;2023-02-15T21:57:01;44.17;;;26.87;;
1471;SDS011;963;42.644;23.336;2023-02-15T21:59:27;48.03;;;28.40;;
1471;SDS011;963;42.644;23.336;2023-02-15T22:01:53;45.13;;;27.30;;
1471;SDS011;963;42.644;23.336;2023-02-15T22:04:20;45.97;;;26.57;;
1471;SDS011;963;42.644;23.336;2023-02-15T22:06:48;46.60;;;26.77;;
1471;SDS011;963;42.644;23.336;2023-02-15T22:09:24;42.60;;;25.90;;
1471;SDS011;963;42.644;23.336;2023-02-15T22:11:51;47.50;;;27.50;;
1471;SDS011;963;42.644;23.336;2023-02-15T22:16:51;49.27;;;28.20;;
1471;SDS011;963;42.644;23.336;2023-02-15T22:19:17;46.47;;;27.20;;
1471;SDS011;963;42.644;23.336;2023-02-15T22:21:42;45.77;;;27.60;;
1471;SDS011;963;42.644;23.336;2023-02-15T22:24:08;45.37;;;27.40;;
1471;SDS011;963;42.644;23.336;2023-02-15T22:26:33;45.67;;;28.50;;
1471;SDS011;963;42.644;23.336;2023-02-15T22:28:58;47.70;;;28.80;;
1471;SDS011;963;42.644;23.336;2023-02-15T22:31:24;49.60;;;28.43;;
1471;SDS011;963;42.644;23.336;2023-02-15T22:33:50;47.23;;;27.03;;
1471;SDS011;963;42.644;23.336;2023-02-15T22:36:23;48.03;;;28.37;;
1471;SDS011;963;42.644;23.336;2023-02-15T22:38:54;44.70;;;24.83;;
1471;SDS011;963;42.644;23.336;2023-02-15T22:41:25;39.67;;;23.67;;
1471;SDS011;963;42.644;23.336;2023-02-15T22:43:53;42.90;;;24.60;;
1471;SDS011;963;42.644;23.336;2023-02-15T22:46:21;35.60;;;22.40;;
1471;SDS011;963;42.644;23.336;2023-02-15T22:48:48;40.00;;;23.87;;
1471;SDS011;963;42.644;23.336;2023-02-15T22:51:14;41.43;;;21.87;;
1471;SDS011;963;42.644;23.336;2023-02-15T22:53:40;34.97;;;23.00;;
1471;SDS011;963;42.644;23.336;2023-02-15T22:56:06;35.33;;;21.80;;
1471;SDS011;963;42.644;23.336;2023-02-15T22:58:38;39.37;;;22.93;;
1471;SDS011;963;42.644;23.336;2023-02-15T23:01:03;44.37;;;23.67;;
1471;SDS011;963;42.644;23.336;2023-02-15T23:03:29;35.57;;;22.00;;
1471;SDS011;963;42.644;23.336;2023-02-15T23:05:57;41.97;;;24.43;;
1471;SDS011;963;42.644;23.336;2023-02-15T23:08:22;40.97;;;23.77;;
1471;SDS011;963;42.644;23.336;2023-02-15T23:10:50;34.63;;;23.30;;
1471;SDS011;963;42.644;23.336;2023-02-15T23:13:29;35.50;;;23.00;;
1471;SDS011;963;42.644;23.336;2023-02-15T23:15:57;39.73;;;22.40;;
1471;SDS011;963;42.644;23.336;2023-02-15T23:18:31;39.77;;;24.37;;
1471;SDS011;963;42.644;23.336;2023-02-15T23:21:08;36.57;;;23.27;;
1471;SDS011;963;42.644;23.336;2023-02-15T23:23:38;37.07;;;22.37;;
1471;SDS011;963;42.644;23.336;2023-02-15T23:26:15;38.70;;;23.07;;
1471;SDS011;963;42.644;23.336;2023-02-15T23:28:44;35.30;;;21.97;;
1471;SDS011;963;42.644;23.336;2023-02-15T23:31:32;35.93;;;21.50;;
1471;SDS011;963;42.644;23.336;2023-02-15T23:33:58;37.43;;;22.33;;
1471;SDS011;963;42.644;23.336;2023-02-15T23:38:58;33.97;;;21.83;;
1471;SDS011;963;42.644;23.336;2023-02-15T23:41:46;33.13;;;21.27;;
1471;SDS011;963;42.644;23.336;2023-02-15T23:44:12;31.77;;;19.63;;
1471;SDS011;963;42.644;23.336;2023-02-15T23:46:39;29.73;;;18.40;;
1471;SDS011;963;42.644;23.336;2023-02-15T23:49:10;30.77;;;20.00;;
1471;SDS011;963;42.644;23.336;2023-02-15T23:51:46;28.30;;;17.77;;
1471;SDS011;963;42.644;23.336;2023-02-15T23:54:14;33.33;;;19.07;;
1471;SDS011;963;42.644;23.336;2023-02-15T23:56:41;33.80;;;21.30;;
1471;SDS011;963;42.644;23.336;2023-02-15T23:59:10;32.77;;;19.13;;
